Date,TemperatureHighF,TemperatureAvgF,TemperatureLowF,DewpointHighF,DewpointAvgF,DewpointLowF,HumidityHigh,HumidityAvg,HumidityLow,PressureMaxIn,PressureMinIn,WindSpeedMaxMPH,WindSpeedAvgMPH,GustSpeedMaxMPH,PrecipitationSumIn
2012-12-1,67.0,49.4,36.7,53.0,44.5,35.7,98,85,57,30.42,30.34,7,1,10,0.00
2012-12-2,66.4,53.3,41.1,57.9,48.8,40.3,99,86,60,30.42,30.31,6,1,8,0.00
2012-12-3,76.7,59.7,48.6,61.7,54.7,47.6,99,85,52,30.34,30.25,9,1,15,0.01
2012-12-4,73.8,58.6,46.1,63.6,55.4,45.1,99,90,67,30.37,30.24,6,1,12,0.00
2012-12-5,76.3,63.3,52.8,60.0,55.9,51.6,98,79,45,30.24,30.10,9,2,16,0.07
2012-12-6,54.6,49.4,45.0,52.6,45.2,42.2,95,86,77,30.28,30.18,9,2,14,0.04
2012-12-7,64.7,55.5,44.5,61.5,52.9,42.0,97,91,83,30.19,29.97,8,1,13,0.00
2012-12-8,69.2,59.5,52.9,60.2,57.0,51.8,98,92,71,30.09,29.97,6,1,9,0.01
2012-12-9,71.3,61.6,50.4,65.4,58.6,49.7,99,90,76,30.17,29.98,6,1,12,0.00
2012-12-10,73.5,66.3,62.4,67.4,63.4,58.2,99,91,76,29.98,29.76,13,4,22,0.10
2012-12-11,73.0,66.9,56.6,68.5,63.3,55.0,97,89,72,30.07,29.75,9,2,16,0.04
2012-12-12,56.4,48.2,42.0,55.0,47.1,41.2,97,96,95,30.23,30.04,10,3,16,0.53
2012-12-13,52.2,44.5,41.9,47.2,42.5,39.8,97,93,81,30.32,30.11,13,4,20,0.22
2012-12-14,61.4,45.6,36.6,46.2,40.0,35.3,97,83,51,30.36,30.24,7,1,12,0.01
2012-12-15,60.6,49.5,36.8,53.1,46.0,35.6,98,88,74,30.28,30.11,4,0,7,0.01
2012-12-16,63.1,59.0,55.3,60.6,57.8,53.0,99,96,91,30.11,29.90,6,0,12,0.03
2012-12-17,64.9,62.1,58.1,63.4,60.7,56.8,99,95,89,29.90,29.65,9,2,17,0.27
2012-12-18,68.2,58.6,45.5,57.2,51.0,36.5,96,77,53,29.94,29.67,12,4,23,0.00
2012-12-19,69.7,51.6,39.4,44.5,39.4,35.6,94,67,32,30.15,29.94,7,1,12,0.00
2012-12-20,70.2,55.9,38.5,62.4,51.3,37.3,99,85,64,30.16,29.57,17,4,30,0.11
2012-12-21,66.5,48.0,36.7,65.3,35.0,25.6,96,62,46,29.88,29.51,20,6,41,0.19
2012-12-22,51.2,40.8,32.8,28.8,26.9,24.9,81,59,36,30.14,29.87,13,3,22,0.00
2012-12-23,56.6,43.6,26.4,41.5,30.6,20.4,92,64,26,30.21,30.08,6,0,10,0.00
2012-12-24,64.8,53.9,39.8,47.4,40.3,33.4,89,61,34,30.11,29.94,9,2,14,0.00
2012-12-25,63.6,52.5,46.7,53.3,48.4,41.8,95,86,69,30.14,29.96,8,1,12,0.03
2012-12-26,66.8,56.7,46.2,65.4,53.4,37.6,99,89,67,30.05,29.48,20,6,33,1.81
2012-12-27,56.9,45.1,37.1,38.3,35.8,33.3,87,71,46,30.08,29.69,11,3,20,0.00
2012-12-28,50.1,40.7,29.3,43.1,35.0,27.5,95,81,62,30.20,30.01,5,0,7,0.00
2012-12-29,53.5,47.7,42.8,49.4,44.8,37.3,98,90,75,30.01,29.66,13,3,25,1.01
2012-12-30,49.6,40.1,29.2,37.7,27.8,23.4,89,64,36,30.44,29.95,11,3,21,0.00
2012-12-31,57.3,41.5,24.8,46.1,32.6,23.3,97,74,37,30.44,30.17,10,2,16,0.01